sensor_id;sensor_type;location;lat;lon;timestamp;P1;durP1;ratioP1;P2;durP2;ratioP2
21677;SDS011;11000;50.360;7.582;2022-12-18T00:01:15;39.38;;;16.27;;
21677;SDS011;11000;50.360;7.582;2022-12-18T00:03:38;33.38;;;15.35;;
21677;SDS011;11000;50.360;7.582;2022-12-18T00:05:58;35.10;;;15.83;;
21677;SDS011;11000;50.360;7.582;2022-12-18T00:08:19;37.60;;;14.83;;
21677;SDS011;11000;50.360;7.582;2022-12-18T00:10:40;37.23;;;16.33;;
21677;SDS011;11000;50.360;7.582;2022-12-18T00:13:00;36.07;;;15.37;;
21677;SDS011;11000;50.360;7.582;2022-12-18T00:15:21;34.73;;;14.80;;
21677;SDS011;11000;50.360;7.582;2022-12-18T00:17:41;34.50;;;14.77;;
21677;SDS011;11000;50.360;7.582;2022-12-18T00:20:02;37.40;;;15.33;;
21677;SDS011;11000;50.360;7.582;2022-12-18T00:22:22;33.80;;;14.87;;
21677;SDS011;11000;50.360;7.582;2022-12-18T00:24:43;36.13;;;14.90;;
21677;SDS011;11000;50.360;7.582;2022-12-18T00:27:03;36.80;;;13.77;;
21677;SDS011;11000;50.360;7.582;2022-12-18T00:29:24;32.57;;;14.40;;
21677;SDS011;11000;50.360;7.582;2022-12-18T00:31:45;37.07;;;15.80;;
21677;SDS011;11000;50.360;7.582;2022-12-18T00:34:06;31.70;;;14.52;;
21677;SDS011;11000;50.360;7.582;2022-12-18T00:36:28;31.93;;;14.17;;
21677;SDS011;11000;50.360;7.582;2022-12-18T00:38:50;34.33;;;13.10;;
21677;SDS011;11000;50.360;7.582;2022-12-18T00:41:11;32.53;;;14.85;;
21677;SDS011;11000;50.360;7.582;2022-12-18T00:43:33;34.85;;;16.13;;
21677;SDS011;11000;50.360;7.582;2022-12-18T00:45:54;34.07;;;13.93;;
21677;SDS011;11000;50.360;7.582;2022-12-18T00:48:14;30.00;;;13.73;;
21677;SDS011;11000;50.360;7.582;2022-12-18T00:50:35;35.20;;;14.10;;
21677;SDS011;11000;50.360;7.582;2022-12-18T00:52:55;36.53;;;14.47;;
21677;SDS011;11000;50.360;7.582;2022-12-18T00:55:16;33.07;;;15.90;;
21677;SDS011;11000;50.360;7.582;2022-12-18T00:57:37;33.30;;;14.85;;
21677;SDS011;11000;50.360;7.582;2022-12-18T00:59:58;36.27;;;14.63;;
21677;SDS011;11000;50.360;7.582;2022-12-18T01:02:18;30.20;;;13.40;;
21677;SDS011;11000;50.360;7.582;2022-12-18T01:04:39;40.00;;;15.07;;
21677;SDS011;11000;50.360;7.582;2022-12-18T01:06:59;31.83;;;14.00;;
21677;SDS011;11000;50.360;7.582;2022-12-18T01:09:20;31.70;;;13.57;;
21677;SDS011;11000;50.360;7.582;2022-12-18T01:11:40;32.50;;;14.47;;
21677;SDS011;11000;50.360;7.582;2022-12-18T01:14:01;34.80;;;15.17;;
21677;SDS011;11000;50.360;7.582;2022-12-18T01:16:22;30.60;;;14.80;;
21677;SDS011;11000;50.360;7.582;2022-12-18T01:18:43;35.77;;;14.73;;
21677;SDS011;11000;50.360;7.582;2022-12-18T01:21:11;35.78;;;14.52;;
21677;SDS011;11000;50.360;7.582;2022-12-18T01:23:33;35.40;;;14.13;;
21677;SDS011;11000;50.360;7.582;2022-12-18T01:25:54;37.50;;;13.90;;
21677;SDS011;11000;50.360;7.582;2022-12-18T01:28:14;40.20;;;14.73;;
21677;SDS011;11000;50.360;7.582;2022-12-18T01:30:35;35.23;;;13.17;;
21677;SDS011;11000;50.360;7.582;2022-12-18T01:32:55;35.80;;;13.97;;
21677;SDS011;11000;50.360;7.582;2022-12-18T01:35:16;32.03;;;14.50;;
21677;SDS011;11000;50.360;7.582;2022-12-18T01:37:36;35.77;;;13.83;;
21677;SDS011;11000;50.360;7.582;2022-12-18T01:39:57;29.10;;;13.97;;
21677;SDS011;11000;50.360;7.582;2022-12-18T01:42:17;33.30;;;13.90;;
21677;SDS011;11000;50.360;7.582;2022-12-18T01:47:18;31.67;;;13.63;;
21677;SDS011;11000;50.360;7.582;2022-12-18T01:49:43;35.25;;;14.32;;
21677;SDS011;11000;50.360;7.582;2022-12-18T01:52:04;31.40;;;12.80;;
21677;SDS011;11000;50.360;7.582;2022-12-18T01:54:24;31.93;;;14.40;;
21677;SDS011;11000;50.360;7.582;2022-12-18T01:56:45;31.87;;;13.47;;
21677;SDS011;11000;50.360;7.582;2022-12-18T01:59:06;30.85;;;13.10;;
21677;SDS011;11000;50.360;7.582;2022-12-18T02:01:30;30.35;;;13.20;;
21677;SDS011;11000;50.360;7.582;2022-12-18T02:03:52;33.65;;;12.90;;
21677;SDS011;11000;50.360;7.582;2022-12-18T02:06:15;34.10;;;13.73;;
21677;SDS011;11000;50.360;7.582;2022-12-18T02:08:48;29.05;;;13.35;;
21677;SDS011;11000;50.360;7.582;2022-12-18T02:11:32;31.85;;;13.95;;
21677;SDS011;11000;50.360;7.582;2022-12-18T02:16:42;33.28;;;13.48;;
21677;SDS011;11000;50.360;7.582;2022-12-18T02:25:22;37.53;;;14.48;;
21677;SDS011;11000;50.360;7.582;2022-12-18T02:27:28;32.97;;;12.95;;
21677;SDS011;11000;50.360;7.582;2022-12-18T02:29:51;34.92;;;13.52;;
21677;SDS011;11000;50.360;7.582;2022-12-18T02:32:15;34.95;;;14.13;;
21677;SDS011;11000;50.360;7.582;2022-12-18T02:34:39;32.58;;;13.98;;
21677;SDS011;11000;50.360;7.582;2022-12-18T02:37:02;30.40;;;13.65;;
21677;SDS011;11000;50.360;7.582;2022-12-18T02:39:25;34.65;;;14.70;;
21677;SDS011;11000;50.360;7.582;2022-12-18T02:41:48;25.65;;;11.85;;
21677;SDS011;11000;50.360;7.582;2022-12-18T02:44:10;31.70;;;13.80;;
21677;SDS011;11000;50.360;7.582;2022-12-18T02:46:33;32.85;;;13.80;;
21677;SDS011;11000;50.360;7.582;2022-12-18T02:48:59;32.70;;;13.93;;
21677;SDS011;11000;50.360;7.582;2022-12-18T02:54:35;29.45;;;12.95;;
21677;SDS011;11000;50.360;7.582;2022-12-18T02:57:30;29.23;;;12.63;;
21677;SDS011;11000;50.360;7.582;2022-12-18T03:02:33;30.50;;;14.15;;
21677;SDS011;11000;50.360;7.582;2022-12-18T03:05:13;29.10;;;13.27;;
21677;SDS011;11000;50.360;7.582;2022-12-18T03:07:52;33.38;;;13.25;;
21677;SDS011;11000;50.360;7.582;2022-12-18T03:10:19;28.77;;;13.45;;
21677;SDS011;11000;50.360;7.582;2022-12-18T03:12:53;32.13;;;13.05;;
21677;SDS011;11000;50.360;7.582;2022-12-18T03:15:26;31.30;;;12.65;;
21677;SDS011;11000;50.360;7.582;2022-12-18T03:17:57;31.30;;;13.57;;
21677;SDS011;11000;50.360;7.582;2022-12-18T03:20:22;32.60;;;12.90;;
21677;SDS011;11000;50.360;7.582;2022-12-18T03:22:47;33.67;;;13.20;;
21677;SDS011;11000;50.360;7.582;2022-12-18T03:25:13;29.98;;;13.20;;
21677;SDS011;11000;50.360;7.582;2022-12-18T03:27:35;34.20;;;13.20;;
21677;SDS011;11000;50.360;7.582;2022-12-18T03:30:04;30.65;;;13.57;;
21677;SDS011;11000;50.360;7.582;2022-12-18T03:32:28;31.92;;;13.40;;
21677;SDS011;11000;50.360;7.582;2022-12-18T03:34:53;32.70;;;12.85;;
21677;SDS011;11000;50.360;7.582;2022-12-18T03:37:17;32.78;;;13.25;;
21677;SDS011;11000;50.360;7.582;2022-12-18T03:39:37;28.63;;;12.93;;
21677;SDS011;11000;50.360;7.582;2022-12-18T03:42:01;30.40;;;12.40;;
21677;SDS011;11000;50.360;7.582;2022-12-18T03:49:56;28.75;;;11.98;;
21677;SDS011;11000;50.360;7.582;2022-12-18T03:52:28;31.25;;;13.20;;
21677;SDS011;11000;50.360;7.582;2022-12-18T03:55:09;32.88;;;13.27;;
21677;SDS011;11000;50.360;7.582;2022-12-18T03:57:31;32.13;;;13.70;;
21677;SDS011;11000;50.360;7.582;2022-12-18T03:59:57;29.70;;;12.70;;
21677;SDS011;11000;50.360;7.582;2022-12-18T04:02:21;25.75;;;12.35;;
21677;SDS011;11000;50.360;7.582;2022-12-18T04:04:43;28.08;;;12.00;;
21677;SDS011;11000;50.360;7.582;2022-12-18T04:07:06;27.90;;;12.57;;
21677;SDS011;11000;50.360;7.582;2022-12-18T04:09:27;29.60;;;12.80;;
21677;SDS011;11000;50.360;7.582;2022-12-18T04:11:50;31.25;;;13.40;;
21677;SDS011;11000;50.360;7.582;2022-12-18T04:14:11;29.73;;;13.32;;
21677;SDS011;11000;50.360;7.582;2022-12-18T04:16:32;28.67;;;13.23;;
21677;SDS011;11000;50.360;7.582;2022-12-18T04:18:53;30.33;;;13.87;;
21677;SDS011;11000;50.360;7.582;2022-12-18T04:21:14;29.85;;;12.75;;
21677;SDS011;11000;50.360;7.582;2022-12-18T04:23:34;30.17;;;12.60;;
21677;SDS011;11000;50.360;7.582;2022-12-18T04:25:55;35.00;;;14.13;;
21677;SDS011;11000;50.360;7.582;2022-12-18T04:28:15;29.53;;;11.83;;
21677;SDS011;11000;50.360;7.582;2022-12-18T04:30:36;26.00;;;12.73;;
21677;SDS011;11000;50.360;7.582;2022-12-18T04:32:56;28.73;;;12.30;;
21677;SDS011;11000;50.360;7.582;2022-12-18T04:35:17;33.47;;;12.97;;
21677;SDS011;11000;50.360;7.582;2022-12-18T04:37:37;33.03;;;13.20;;
21677;SDS011;11000;50.360;7.582;2022-12-18T04:39:58;25.90;;;11.90;;
21677;SDS011;11000;50.360;7.582;2022-12-18T04:42:18;30.93;;;12.50;;
21677;SDS011;11000;50.360;7.582;2022-12-18T04:44:39;25.63;;;12.00;;
21677;SDS011;11000;50.360;7.582;2022-12-18T04:46:59;28.67;;;12.37;;
21677;SDS011;11000;50.360;7.582;2022-12-18T04:49:20;33.37;;;13.03;;
21677;SDS011;11000;50.360;7.582;2022-12-18T04:51:40;29.03;;;11.87;;
21677;SDS011;11000;50.360;7.582;2022-12-18T04:54:01;34.00;;;13.60;;
21677;SDS011;11000;50.360;7.582;2022-12-18T04:56:22;36.70;;;14.27;;
21677;SDS011;11000;50.360;7.582;2022-12-18T04:58:43;30.00;;;12.13;;
21677;SDS011;11000;50.360;7.582;2022-12-18T05:01:04;30.23;;;12.38;;
21677;SDS011;11000;50.360;7.582;2022-12-18T05:03:25;36.23;;;14.03;;
21677;SDS011;11000;50.360;7.582;2022-12-18T05:05:48;29.17;;;13.13;;
21677;SDS011;11000;50.360;7.582;2022-12-18T05:08:10;31.48;;;12.13;;
21677;SDS011;11000;50.360;7.582;2022-12-18T05:10:31;31.43;;;12.67;;
21677;SDS011;11000;50.360;7.582;2022-12-18T05:12:51;27.07;;;12.37;;
21677;SDS011;11000;50.360;7.582;2022-12-18T05:15:18;32.80;;;13.07;;
21677;SDS011;11000;50.360;7.582;2022-12-18T05:17:39;28.67;;;13.23;;
21677;SDS011;11000;50.360;7.582;2022-12-18T05:19:59;29.27;;;12.80;;
21677;SDS011;11000;50.360;7.582;2022-12-18T05:22:20;29.23;;;13.03;;
21677;SDS011;11000;50.360;7.582;2022-12-18T05:24:40;29.83;;;12.30;;
21677;SDS011;11000;50.360;7.582;2022-12-18T05:27:01;28.30;;;13.37;;
21677;SDS011;11000;50.360;7.582;2022-12-18T05:29:21;29.10;;;12.23;;
21677;SDS011;11000;50.360;7.582;2022-12-18T05:31:42;28.23;;;12.57;;
21677;SDS011;11000;50.360;7.582;2022-12-18T05:34:02;31.03;;;13.13;;
21677;SDS011;11000;50.360;7.582;2022-12-18T05:36:23;35.27;;;13.00;;
21677;SDS011;11000;50.360;7.582;2022-12-18T05:38:43;34.00;;;14.37;;
21677;SDS011;11000;50.360;7.582;2022-12-18T05:41:04;27.57;;;13.53;;
21677;SDS011;11000;50.360;7.582;2022-12-18T05:43:25;32.78;;;14.85;;
21677;SDS011;11000;50.360;7.582;2022-12-18T05:45:47;32.17;;;14.43;;
21677;SDS011;11000;50.360;7.582;2022-12-18T05:48:08;30.67;;;13.15;;
21677;SDS011;11000;50.360;7.582;2022-12-18T05:50:29;32.47;;;13.80;;
21677;SDS011;11000;50.360;7.582;2022-12-18T05:52:49;33.97;;;15.20;;
21677;SDS011;11000;50.360;7.582;2022-12-18T05:55:10;33.53;;;13.97;;
21677;SDS011;11000;50.360;7.582;2022-12-18T05:57:30;38.30;;;17.03;;
21677;SDS011;11000;50.360;7.582;2022-12-18T05:59:51;30.63;;;14.47;;
21677;SDS011;11000;50.360;7.582;2022-12-18T06:02:11;35.93;;;14.07;;
21677;SDS011;11000;50.360;7.582;2022-12-18T06:04:32;29.70;;;13.70;;
21677;SDS011;11000;50.360;7.582;2022-12-18T06:06:52;30.80;;;13.63;;
21677;SDS011;11000;50.360;7.582;2022-12-18T06:09:13;29.00;;;12.80;;
21677;SDS011;11000;50.360;7.582;2022-12-18T06:11:34;29.63;;;13.93;;
21677;SDS011;11000;50.360;7.582;2022-12-18T06:13:56;32.53;;;13.60;;
21677;SDS011;11000;50.360;7.582;2022-12-18T06:16:16;35.53;;;12.93;;
21677;SDS011;11000;50.360;7.582;2022-12-18T06:18:37;41.50;;;14.13;;
21677;SDS011;11000;50.360;7.582;2022-12-18T06:20:58;31.07;;;13.40;;
21677;SDS011;11000;50.360;7.582;2022-12-18T06:23:19;33.42;;;14.55;;
21677;SDS011;11000;50.360;7.582;2022-12-18T06:25:40;25.33;;;12.23;;
21677;SDS011;11000;50.360;7.582;2022-12-18T06:28:00;34.83;;;14.07;;
21677;SDS011;11000;50.360;7.582;2022-12-18T06:30:21;34.00;;;13.87;;
21677;SDS011;11000;50.360;7.582;2022-12-18T06:32:41;33.17;;;14.40;;
21677;SDS011;11000;50.360;7.582;2022-12-18T06:35:02;33.47;;;13.23;;
21677;SDS011;11000;50.360;7.582;2022-12-18T06:37:23;32.85;;;13.55;;
21677;SDS011;11000;50.360;7.582;2022-12-18T06:39:45;37.30;;;13.95;;
21677;SDS011;11000;50.360;7.582;2022-12-18T06:42:06;33.40;;;13.27;;
21677;SDS011;11000;50.360;7.582;2022-12-18T06:44:26;29.63;;;14.07;;
21677;SDS011;11000;50.360;7.582;2022-12-18T06:46:47;34.67;;;13.37;;
21677;SDS011;11000;50.360;7.582;2022-12-18T06:49:07;31.63;;;14.17;;
21677;SDS011;11000;50.360;7.582;2022-12-18T06:51:29;39.10;;;19.30;;
21677;SDS011;11000;50.360;7.582;2022-12-18T06:53:50;38.23;;;17.23;;
21677;SDS011;11000;50.360;7.582;2022-12-18T06:56:10;33.37;;;13.63;;
21677;SDS011;11000;50.360;7.582;2022-12-18T06:58:31;30.63;;;13.80;;
21677;SDS011;11000;50.360;7.582;2022-12-18T07:00:52;36.28;;;14.10;;
21677;SDS011;11000;50.360;7.582;2022-12-18T07:03:12;33.47;;;13.90;;
21677;SDS011;11000;50.360;7.582;2022-12-18T07:05:33;31.30;;;14.07;;
21677;SDS011;11000;50.360;7.582;2022-12-18T07:07:54;32.70;;;13.77;;
21677;SDS011;11000;50.360;7.582;2022-12-18T07:10:14;36.17;;;13.20;;
21677;SDS011;11000;50.360;7.582;2022-12-18T07:12:36;33.40;;;12.73;;
21677;SDS011;11000;50.360;7.582;2022-12-18T07:14:57;33.67;;;12.60;;
21677;SDS011;11000;50.360;7.582;2022-12-18T07:17:18;28.97;;;13.17;;
21677;SDS011;11000;50.360;7.582;2022-12-18T07:19:38;31.87;;;12.17;;
21677;SDS011;11000;50.360;7.582;2022-12-18T07:22:00;32.28;;;13.85;;
21677;SDS011;11000;50.360;7.582;2022-12-18T07:24:26;34.63;;;12.68;;
21677;SDS011;11000;50.360;7.582;2022-12-18T07:26:46;32.90;;;12.83;;
21677;SDS011;11000;50.360;7.582;2022-12-18T07:29:07;33.67;;;13.23;;
21677;SDS011;11000;50.360;7.582;2022-12-18T07:31:28;24.77;;;12.23;;
21677;SDS011;11000;50.360;7.582;2022-12-18T07:33:49;33.30;;;13.80;;
21677;SDS011;11000;50.360;7.582;2022-12-18T07:36:11;35.95;;;13.80;;
21677;SDS011;11000;50.360;7.582;2022-12-18T07:38:36;38.42;;;14.73;;
21677;SDS011;11000;50.360;7.582;2022-12-18T07:41:01;33.72;;;13.43;;
21677;SDS011;11000;50.360;7.582;2022-12-18T07:43:30;38.58;;;13.90;;
21677;SDS011;11000;50.360;7.582;2022-12-18T07:45:51;31.40;;;14.38;;
21677;SDS011;11000;50.360;7.582;2022-12-18T07:48:13;34.47;;;14.73;;
21677;SDS011;11000;50.360;7.582;2022-12-18T07:50:34;39.17;;;15.40;;
21677;SDS011;11000;50.360;7.582;2022-12-18T07:52:55;33.88;;;12.95;;
21677;SDS011;11000;50.360;7.582;2022-12-18T07:55:18;34.13;;;13.20;;
21677;SDS011;11000;50.360;7.582;2022-12-18T07:57:38;34.03;;;15.27;;
21677;SDS011;11000;50.360;7.582;2022-12-18T07:59:59;31.53;;;14.00;;
21677;SDS011;11000;50.360;7.582;2022-12-18T08:02:20;29.73;;;13.20;;
21677;SDS011;11000;50.360;7.582;2022-12-18T08:04:40;31.73;;;13.13;;
21677;SDS011;11000;50.360;7.582;2022-12-18T08:07:01;28.53;;;13.30;;
21677;SDS011;11000;50.360;7.582;2022-12-18T08:09:21;38.00;;;13.60;;
21677;SDS011;11000;50.360;7.582;2022-12-18T08:11:42;32.33;;;13.70;;
21677;SDS011;11000;50.360;7.582;2022-12-18T08:14:03;36.90;;;14.73;;
21677;SDS011;11000;50.360;7.582;2022-12-18T08:16:24;33.15;;;13.45;;
21677;SDS011;11000;50.360;7.582;2022-12-18T08:18:46;37.35;;;15.05;;
21677;SDS011;11000;50.360;7.582;2022-12-18T08:21:10;33.33;;;14.10;;
21677;SDS011;11000;50.360;7.582;2022-12-18T08:23:33;34.25;;;15.32;;
21677;SDS011;11000;50.360;7.582;2022-12-18T08:25:53;33.80;;;15.03;;
21677;SDS011;11000;50.360;7.582;2022-12-18T08:28:14;35.50;;;14.27;;
21677;SDS011;11000;50.360;7.582;2022-12-18T08:30:35;37.80;;;14.70;;
21677;SDS011;11000;50.360;7.582;2022-12-18T08:32:55;37.97;;;15.82;;
21677;SDS011;11000;50.360;7.582;2022-12-18T08:35:16;38.77;;;15.87;;
21677;SDS011;11000;50.360;7.582;2022-12-18T08:37:36;33.70;;;13.47;;
21677;SDS011;11000;50.360;7.582;2022-12-18T08:39:57;36.10;;;14.57;;
21677;SDS011;11000;50.360;7.582;2022-12-18T08:42:17;33.10;;;14.77;;
21677;SDS011;11000;50.360;7.582;2022-12-18T08:44:57;38.00;;;15.07;;
21677;SDS011;11000;50.360;7.582;2022-12-18T08:47:18;30.97;;;13.97;;
21677;SDS011;11000;50.360;7.582;2022-12-18T08:49:38;45.87;;;17.03;;
21677;SDS011;11000;50.360;7.582;2022-12-18T08:51:59;46.90;;;18.40;;
21677;SDS011;11000;50.360;7.582;2022-12-18T08:54:29;44.28;;;18.90;;
21677;SDS011;11000;50.360;7.582;2022-12-18T08:56:50;38.57;;;18.07;;
21677;SDS011;11000;50.360;7.582;2022-12-18T08:59:11;48.90;;;18.90;;
21677;SDS011;11000;50.360;7.582;2022-12-18T09:01:33;41.45;;;19.10;;
21677;SDS011;11000;50.360;7.582;2022-12-18T09:03:54;44.23;;;17.83;;
21677;SDS011;11000;50.360;7.582;2022-12-18T09:06:15;42.97;;;17.53;;
21677;SDS011;11000;50.360;7.582;2022-12-18T09:08:37;46.53;;;18.98;;
21677;SDS011;11000;50.360;7.582;2022-12-18T09:10:58;47.47;;;19.48;;
21677;SDS011;11000;50.360;7.582;2022-12-18T09:13:19;44.73;;;18.50;;
21677;SDS011;11000;50.360;7.582;2022-12-18T09:15:41;43.63;;;16.83;;
21677;SDS011;11000;50.360;7.582;2022-12-18T09:18:03;44.85;;;17.90;;
21677;SDS011;11000;50.360;7.582;2022-12-18T09:20:25;52.08;;;18.17;;
21677;SDS011;11000;50.360;7.582;2022-12-18T09:22:48;42.53;;;17.92;;
21677;SDS011;11000;50.360;7.582;2022-12-18T09:25:08;42.30;;;16.80;;
21677;SDS011;11000;50.360;7.582;2022-12-18T09:27:30;36.85;;;15.45;;
21677;SDS011;11000;50.360;7.582;2022-12-18T09:29:50;43.60;;;17.30;;
21677;SDS011;11000;50.360;7.582;2022-12-18T09:32:14;42.10;;;17.27;;
21677;SDS011;11000;50.360;7.582;2022-12-18T09:34:35;35.15;;;15.82;;
21677;SDS011;11000;50.360;7.582;2022-12-18T09:36:55;36.70;;;16.17;;
21677;SDS011;11000;50.360;7.582;2022-12-18T09:39:15;32.57;;;14.80;;
21677;SDS011;11000;50.360;7.582;2022-12-18T09:41:43;39.20;;;16.07;;
21677;SDS011;11000;50.360;7.582;2022-12-18T09:44:15;32.28;;;15.63;;
21677;SDS011;11000;50.360;7.582;2022-12-18T09:49:28;32.50;;;14.98;;
21677;SDS011;11000;50.360;7.582;2022-12-18T09:51:52;31.20;;;15.07;;
21677;SDS011;11000;50.360;7.582;2022-12-18T09:54:22;35.47;;;15.88;;
21677;SDS011;11000;50.360;7.582;2022-12-18T09:56:49;34.35;;;15.18;;
21677;SDS011;11000;50.360;7.582;2022-12-18T09:59:24;37.77;;;16.83;;
21677;SDS011;11000;50.360;7.582;2022-12-18T10:01:59;33.70;;;15.55;;
21677;SDS011;11000;50.360;7.582;2022-12-18T10:04:20;45.90;;;19.40;;
21677;SDS011;11000;50.360;7.582;2022-12-18T10:06:43;54.85;;;24.25;;
21677;SDS011;11000;50.360;7.582;2022-12-18T10:09:09;37.97;;;18.58;;
21677;SDS011;11000;50.360;7.582;2022-12-18T10:14:17;50.13;;;20.42;;
21677;SDS011;11000;50.360;7.582;2022-12-18T10:19:39;41.75;;;19.92;;
21677;SDS011;11000;50.360;7.582;2022-12-18T10:22:19;40.45;;;22.35;;
21677;SDS011;11000;50.360;7.582;2022-12-18T10:27:26;41.78;;;20.73;;
21677;SDS011;11000;50.360;7.582;2022-12-18T10:29:47;39.90;;;18.77;;
21677;SDS011;11000;50.360;7.582;2022-12-18T10:32:09;39.33;;;16.73;;
21677;SDS011;11000;50.360;7.582;2022-12-18T10:34:45;40.97;;;18.65;;
21677;SDS011;11000;50.360;7.582;2022-12-18T10:37:11;36.72;;;18.25;;
21677;SDS011;11000;50.360;7.582;2022-12-18T10:39:40;40.30;;;17.42;;
21677;SDS011;11000;50.360;7.582;2022-12-18T10:42:11;39.53;;;17.50;;
21677;SDS011;11000;50.360;7.582;2022-12-18T10:44:38;33.42;;;16.17;;
21677;SDS011;11000;50.360;7.582;2022-12-18T10:47:04;35.53;;;16.83;;
21677;SDS011;11000;50.360;7.582;2022-12-18T10:49:27;34.65;;;15.85;;
21677;SDS011;11000;50.360;7.582;2022-12-18T10:52:04;34.05;;;17.55;;
21677;SDS011;11000;50.360;7.582;2022-12-18T10:54:37;39.72;;;18.05;;
21677;SDS011;11000;50.360;7.582;2022-12-18T10:57:14;42.60;;;18.73;;
21677;SDS011;11000;50.360;7.582;2022-12-18T10:59:49;37.55;;;17.80;;
21677;SDS011;11000;50.360;7.582;2022-12-18T11:02:24;35.88;;;17.33;;
21677;SDS011;11000;50.360;7.582;2022-12-18T11:04:54;38.75;;;18.42;;
21677;SDS011;11000;50.360;7.582;2022-12-18T11:07:14;42.07;;;19.47;;
21677;SDS011;11000;50.360;7.582;2022-12-18T11:09:36;41.22;;;18.60;;
21677;SDS011;11000;50.360;7.582;2022-12-18T11:12:03;41.70;;;18.50;;
21677;SDS011;11000;50.360;7.582;2022-12-18T11:14:42;50.17;;;25.17;;
21677;SDS011;11000;50.360;7.582;2022-12-18T11:17:16;43.40;;;22.00;;
21677;SDS011;11000;50.360;7.582;2022-12-18T11:19:39;40.92;;;20.75;;
21677;SDS011;11000;50.360;7.582;2022-12-18T11:22:03;44.75;;;22.90;;
21677;SDS011;11000;50.360;7.582;2022-12-18T11:24:49;40.95;;;21.40;;
21677;SDS011;11000;50.360;7.582;2022-12-18T11:27:20;42.65;;;20.80;;
21677;SDS011;11000;50.360;7.582;2022-12-18T11:29:41;41.20;;;18.77;;
21677;SDS011;11000;50.360;7.582;2022-12-18T11:34:34;38.35;;;17.88;;
21677;SDS011;11000;50.360;7.582;2022-12-18T11:36:56;43.28;;;18.73;;
21677;SDS011;11000;50.360;7.582;2022-12-18T11:42:14;38.15;;;19.05;;
21677;SDS011;11000;50.360;7.582;2022-12-18T11:50:28;42.50;;;20.27;;
21677;SDS011;11000;50.360;7.582;2022-12-18T11:53:02;47.92;;;21.33;;
21677;SDS011;11000;50.360;7.582;2022-12-18T11:55:46;39.40;;;19.43;;
21677;SDS011;11000;50.360;7.582;2022-12-18T11:58:13;40.47;;;20.05;;
21677;SDS011;11000;50.360;7.582;2022-12-18T12:01:07;45.72;;;21.10;;
21677;SDS011;11000;50.360;7.582;2022-12-18T12:03:39;40.00;;;21.52;;
21677;SDS011;11000;50.360;7.582;2022-12-18T12:06:24;43.80;;;20.02;;
21677;SDS011;11000;50.360;7.582;2022-12-18T12:17:01;41.30;;;20.40;;
21677;SDS011;11000;50.360;7.582;2022-12-18T12:25:07;41.17;;;20.53;;
21677;SDS011;11000;50.360;7.582;2022-12-18T12:30:23;47.13;;;21.97;;
21677;SDS011;11000;50.360;7.582;2022-12-18T12:33:10;44.85;;;23.23;;
21677;SDS011;11000;50.360;7.582;2022-12-18T12:38:42;46.13;;;22.00;;
21677;SDS011;11000;50.360;7.582;2022-12-18T12:41:08;49.15;;;22.92;;
21677;SDS011;11000;50.360;7.582;2022-12-18T12:43:52;44.77;;;22.83;;
21677;SDS011;11000;50.360;7.582;2022-12-18T12:46:17;48.87;;;21.97;;
21677;SDS011;11000;50.360;7.582;2022-12-18T12:48:48;48.47;;;23.83;;
21677;SDS011;11000;50.360;7.582;2022-12-18T12:51:34;44.33;;;23.13;;
21677;SDS011;11000;50.360;7.582;2022-12-18T12:53:54;49.03;;;22.83;;
21677;SDS011;11000;50.360;7.582;2022-12-18T12:56:17;52.10;;;23.30;;
21677;SDS011;11000;50.360;7.582;2022-12-18T12:58:45;40.93;;;19.67;;
21677;SDS011;11000;50.360;7.582;2022-12-18T13:03:54;47.47;;;21.40;;
21677;SDS011;11000;50.360;7.582;2022-12-18T13:08:58;41.80;;;20.13;;
21677;SDS011;11000;50.360;7.582;2022-12-18T13:11:30;38.80;;;18.40;;
21677;SDS011;11000;50.360;7.582;2022-12-18T13:14:34;39.53;;;18.10;;
21677;SDS011;11000;50.360;7.582;2022-12-18T13:19:37;45.40;;;20.20;;
21677;SDS011;11000;50.360;7.582;2022-12-18T13:21:58;41.27;;;20.13;;
21677;SDS011;11000;50.360;7.582;2022-12-18T13:26:42;37.90;;;17.90;;
21677;SDS011;11000;50.360;7.582;2022-12-18T13:29:03;42.47;;;19.60;;
21677;SDS011;11000;50.360;7.582;2022-12-18T13:34:19;37.70;;;19.37;;
21677;SDS011;11000;50.360;7.582;2022-12-18T13:36:44;40.07;;;18.83;;
21677;SDS011;11000;50.360;7.582;2022-12-18T13:41:38;42.13;;;19.03;;
21677;SDS011;11000;50.360;7.582;2022-12-18T13:44:33;40.93;;;19.63;;
21677;SDS011;11000;50.360;7.582;2022-12-18T13:47:00;37.17;;;19.40;;
21677;SDS011;11000;50.360;7.582;2022-12-18T13:49:28;39.80;;;19.70;;
21677;SDS011;11000;50.360;7.582;2022-12-18T13:51:59;39.53;;;18.83;;
21677;SDS011;11000;50.360;7.582;2022-12-18T13:56:53;37.57;;;17.80;;
21677;SDS011;11000;50.360;7.582;2022-12-18T13:59:15;33.80;;;17.63;;
21677;SDS011;11000;50.360;7.582;2022-12-18T14:01:41;39.50;;;19.03;;
21677;SDS011;11000;50.360;7.582;2022-12-18T14:04:10;41.30;;;23.38;;
21677;SDS011;11000;50.360;7.582;2022-12-18T14:06:32;43.43;;;19.80;;
21677;SDS011;11000;50.360;7.582;2022-12-18T14:08:57;39.77;;;20.73;;
21677;SDS011;11000;50.360;7.582;2022-12-18T14:11:22;40.57;;;19.53;;
21677;SDS011;11000;50.360;7.582;2022-12-18T14:13:43;37.13;;;18.90;;
21677;SDS011;11000;50.360;7.582;2022-12-18T14:16:04;36.40;;;18.30;;
21677;SDS011;11000;50.360;7.582;2022-12-18T14:20:59;39.27;;;20.07;;
21677;SDS011;11000;50.360;7.582;2022-12-18T14:23:29;37.57;;;19.70;;
21677;SDS011;11000;50.360;7.582;2022-12-18T14:25:54;41.83;;;22.13;;
21677;SDS011;11000;50.360;7.582;2022-12-18T14:28:15;41.30;;;18.97;;
21677;SDS011;11000;50.360;7.582;2022-12-18T14:30:37;38.47;;;19.10;;
21677;SDS011;11000;50.360;7.582;2022-12-18T14:33:10;40.60;;;19.50;;
21677;SDS011;11000;50.360;7.582;2022-12-18T14:35:33;38.20;;;19.10;;
21677;SDS011;11000;50.360;7.582;2022-12-18T14:38:11;45.23;;;20.93;;
21677;SDS011;11000;50.360;7.582;2022-12-18T14:40:42;42.63;;;19.97;;
21677;SDS011;11000;50.360;7.582;2022-12-18T14:43:03;40.57;;;19.60;;
21677;SDS011;11000;50.360;7.582;2022-12-18T14:45:34;45.73;;;22.67;;
21677;SDS011;11000;50.360;7.582;2022-12-18T14:47:58;39.63;;;19.30;;
21677;SDS011;11000;50.360;7.582;2022-12-18T14:50:19;45.17;;;24.50;;
21677;SDS011;11000;50.360;7.582;2022-12-18T14:52:40;46.47;;;21.37;;
21677;SDS011;11000;50.360;7.582;2022-12-18T14:55:00;41.67;;;21.90;;
21677;SDS011;11000;50.360;7.582;2022-12-18T14:57:25;43.40;;;20.30;;
21677;SDS011;11000;50.360;7.582;2022-12-18T14:59:50;51.90;;;31.80;;
21677;SDS011;11000;50.360;7.582;2022-12-18T15:02:22;44.53;;;19.90;;
21677;SDS011;11000;50.360;7.582;2022-12-18T15:04:45;43.10;;;19.83;;
21677;SDS011;11000;50.360;7.582;2022-12-18T15:09:40;39.53;;;20.57;;
21677;SDS011;11000;50.360;7.582;2022-12-18T15:12:02;41.13;;;20.33;;
21677;SDS011;11000;50.360;7.582;2022-12-18T15:14:32;43.07;;;20.17;;
21677;SDS011;11000;50.360;7.582;2022-12-18T15:16:57;38.50;;;19.07;;
21677;SDS011;11000;50.360;7.582;2022-12-18T15:19:21;47.37;;;22.03;;
21677;SDS011;11000;50.360;7.582;2022-12-18T15:21:47;42.97;;;20.90;;
21677;SDS011;11000;50.360;7.582;2022-12-18T15:24:13;42.63;;;20.90;;
21677;SDS011;11000;50.360;7.582;2022-12-18T15:26:37;46.43;;;20.87;;
21677;SDS011;11000;50.360;7.582;2022-12-18T15:28:58;43.97;;;20.03;;
21677;SDS011;11000;50.360;7.582;2022-12-18T15:31:21;42.97;;;20.77;;